This is the latest recevied weather packets stored in our database for station/object N5TDX. If no packets are shown the sender has not sent any weather packets the latest 1 day(s).
| Time | Temp. | Humidity | Pressure | Rain* | Wind** | Luminosity | Snow |
|---|---|---|---|---|---|---|---|
| 1778099768 | 17.78° C | 63% | 1010.8 hPa | 0 mm | - | - | - |
| 1778097948 | 17.22° C | 64% | 1011.4 hPa | 0 mm | - | - | - |
| 1778097645 | 17.22° C | 64% | 1011.4 hPa | 0 mm | - | - | - |
| 1778097038 | 16.67° C | 65% | 1011.6 hPa | 0 mm | - | - | - |
| 1778096432 | 16.67° C | 63% | 1011.9 hPa | 0 mm | - | - | - |
| 1778093400 | 14.44° C | 71% | 1012.4 hPa | 0 mm | - | - | - |
| 1778090066 | 13.89° C | 74% | 1011.2 hPa | 0 mm | - | - | - |
| 1778088854 | 13.33° C | 76% | 1011.6 hPa | 0 mm | - | - | - |
| 1778087945 | 12.78° C | 78% | 1011.8 hPa | 0 mm | - | - | - |
| 1778087036 | 12.78° C | 80% | 1011.7 hPa | 0 mm | - | - | - |
| 1778086735 | 12.78° C | 79% | 1011.4 hPa | 0 mm | - | - | - |
| 1778086433 | 12.78° C | 80% | 1011.3 hPa | 0 mm | - | - | - |
| 1778086129 | 12.22° C | 80% | 1011.2 hPa | 0 mm | - | - | - |
| 1778084913 | 12.22° C | 83% | 1011.9 hPa | 0 mm | - | - | - |
| 1778083400 | 12.22° C | 84% | 1011.7 hPa | 0 mm | - | - | - |
| 1778083099 | 12.22° C | 83% | 1011.9 hPa | 0 mm | - | - | - |
| 1778081365 | 11.67° C | 88% | 1011.1 hPa | 0 mm | - | - | - |
| 1778077731 | 11.67° C | 82% | 1013.3 hPa | 0 mm | - | - | - |
| 1778076219 | 11.67° C | 81% | 1011.5 hPa | 0 mm | - | - | - |
| 1778075916 | 11.67° C | 79% | 1011.7 hPa | 0 mm | - | - | - |
| 1778074096 | 11.67° C | 78% | 1011.3 hPa | 0 mm | - | - | - |
| 1778073491 | 11.67° C | 78% | 1010.9 hPa | 0 mm | - | - | - |
| 1778072884 | 11.67° C | 78% | 1011 hPa | 0 mm | - | - | - |
| 1778070768 | 12.78° C | 74% | 1010.2 hPa | 0 mm | - | - | - |
| 1778069556 | 12.78° C | 72% | 1010.3 hPa | 0 mm | - | - | - |
* Rain latest hour (hover to see other rain measurements)
** Current wind speed in m/s (hover to see current wind gust speed)